createdAt,value
2017-10-21T00:00:50.974Z,77.70
2017-10-21T00:03:18.538Z,77.50
2017-10-21T00:05:46.114Z,77.60
2017-10-21T00:08:15.204Z,77.80
2017-10-21T00:10:43.694Z,77.80
2017-10-21T00:13:12.658Z,77.90
2017-10-21T00:15:40.276Z,77.90
2017-10-21T00:18:07.730Z,77.90
2017-10-21T00:20:35.226Z,77.90
2017-10-21T00:23:02.667Z,77.90
2017-10-21T00:25:30.138Z,77.60
2017-10-21T00:27:57.838Z,77.60
2017-10-21T00:30:25.296Z,77.20
2017-10-21T00:32:53.587Z,77.10
2017-10-21T00:35:21.834Z,76.80
2017-10-21T00:37:50.086Z,76.40
2017-10-21T00:40:17.541Z,76.40
2017-10-21T00:42:45.028Z,76.70
2017-10-21T00:45:13.261Z,76.70
2017-10-21T00:47:40.729Z,76.70
2017-10-21T00:50:08.231Z,76.20
2017-10-21T00:52:35.673Z,76.10
2017-10-21T00:55:03.924Z,76.50
2017-10-21T00:57:31.399Z,76.40
2017-10-21T00:59:59.655Z,76.50
2017-10-21T01:05:01.814Z,76.80
2017-10-21T01:07:29.274Z,76.60
2017-10-21T01:09:56.860Z,76.60
2017-10-21T01:12:24.328Z,76.90
2017-10-21T01:14:51.786Z,76.90
2017-10-21T01:17:20.041Z,76.70
2017-10-21T01:19:47.521Z,76.60
2017-10-21T01:22:15.061Z,76.30
2017-10-21T01:24:42.522Z,76.40
2017-10-21T01:27:09.994Z,76.60
2017-10-21T01:29:37.475Z,76.60
2017-10-21T01:32:05.704Z,76.40
2017-10-21T01:34:33.177Z,76.40
2017-10-21T01:37:00.640Z,76.30
2017-10-21T01:39:28.103Z,76.60
2017-10-21T01:41:55.572Z,76.70
2017-10-21T01:44:24.241Z,76.50
2017-10-21T01:46:51.693Z,76.40
2017-10-21T01:49:19.166Z,76.50
2017-10-21T01:51:47.422Z,76.90
2017-10-21T01:54:14.887Z,76.90
2017-10-21T01:56:43.153Z,76.80
2017-10-21T01:59:10.721Z,77.30
2017-10-21T02:01:39.714Z,77.20
2017-10-21T02:04:07.177Z,77.10
2017-10-21T02:06:35.447Z,77.80
2017-10-21T02:09:02.905Z,77.10
2017-10-21T02:11:30.372Z,77.30
2017-10-21T02:13:58.626Z,77.60
2017-10-21T02:16:26.245Z,77.50
2017-10-21T02:18:53.723Z,77.70
2017-10-21T02:21:21.212Z,77.40
2017-10-21T02:23:49.460Z,78.00
2017-10-21T02:26:16.924Z,77.40
2017-10-21T02:28:44.465Z,77.60
2017-10-21T02:31:11.950Z,77.80
2017-10-21T02:33:39.480Z,77.80
2017-10-21T02:36:06.948Z,77.50
2017-10-21T02:38:34.426Z,77.60
2017-10-21T02:41:01.902Z,77.80
2017-10-21T02:43:30.121Z,77.70
2017-10-21T02:45:57.605Z,77.70
2017-10-21T02:48:25.070Z,77.70
2017-10-21T02:50:52.547Z,77.80
2017-10-21T02:53:20.795Z,77.40
2017-10-21T02:55:48.286Z,77.40
2017-10-21T02:58:16.533Z,77.60
2017-10-21T03:00:44.973Z,77.60
2017-10-21T03:03:12.449Z,77.70
2017-10-21T03:05:39.905Z,77.50
2017-10-21T03:08:07.381Z,77.30
2017-10-21T03:10:34.920Z,77.50
2017-10-21T03:13:02.394Z,77.30
2017-10-21T03:15:29.962Z,77.10
2017-10-21T03:17:57.434Z,77.20
2017-10-21T03:20:25.680Z,77.00
2017-10-21T03:22:53.155Z,76.90
2017-10-21T03:25:21.402Z,77.20
2017-10-21T03:27:48.862Z,77.20
2017-10-21T03:30:16.329Z,77.10
2017-10-21T03:32:43.793Z,77.20
2017-10-21T03:35:12.024Z,77.10
2017-10-21T03:37:39.511Z,77.00
2017-10-21T03:40:07.008Z,77.30
2017-10-21T03:42:35.284Z,77.70
2017-10-21T03:45:03.506Z,77.60
2017-10-21T03:47:30.977Z,77.50
2017-10-21T03:49:58.451Z,77.60
2017-10-21T03:52:27.450Z,77.80
2017-10-21T03:54:54.921Z,77.80
2017-10-21T03:57:23.171Z,77.90
2017-10-21T03:59:50.630Z,77.90
2017-10-21T04:02:18.097Z,78.20
2017-10-21T04:04:46.320Z,78.40
2017-10-21T04:07:13.781Z,78.40
2017-10-21T04:09:41.243Z,78.60
2017-10-21T04:12:08.709Z,78.50
2017-10-21T04:14:36.282Z,78.60
2017-10-21T04:17:03.739Z,78.50
2017-10-21T04:19:31.224Z,78.80
2017-10-21T04:21:59.455Z,78.60
2017-10-21T04:24:26.952Z,78.60
2017-10-21T04:26:54.413Z,78.70
2017-10-21T04:29:22.681Z,78.90
2017-10-21T04:31:50.900Z,79.30
2017-10-21T04:34:18.370Z,78.60
2017-10-21T04:36:45.841Z,78.70
2017-10-21T04:39:13.473Z,79.20
2017-10-21T04:41:40.950Z,80.00
2017-10-21T04:44:08.415Z,80.40
2017-10-21T04:46:35.889Z,80.60
2017-10-21T04:49:04.861Z,80.90
2017-10-21T04:51:32.355Z,80.80
2017-10-21T04:54:00.601Z,81.30
2017-10-21T04:56:28.125Z,81.30
2017-10-21T04:58:55.602Z,81.40
2017-10-21T05:01:23.064Z,81.40
2017-10-21T05:03:50.544Z,81.60
2017-10-21T05:06:18.782Z,81.80
2017-10-21T05:08:46.277Z,81.70
2017-10-21T05:11:14.537Z,82.10
2017-10-21T05:13:42.013Z,82.00
2017-10-21T05:16:10.245Z,82.20
2017-10-21T05:18:37.721Z,82.10
2017-10-21T05:21:05.201Z,82.30
2017-10-21T05:23:33.444Z,82.40
2017-10-21T05:26:00.930Z,82.40
2017-10-21T05:28:28.392Z,82.50
2017-10-21T05:30:56.747Z,82.80
2017-10-21T05:33:24.277Z,82.60
2017-10-21T05:35:51.813Z,82.70
2017-10-21T05:38:19.279Z,82.70
2017-10-21T05:40:46.746Z,82.60
2017-10-21T05:43:14.225Z,82.80
2017-10-21T05:45:41.815Z,82.90
2017-10-21T05:48:09.292Z,83.10
2017-10-21T05:50:37.517Z,83.20
2017-10-21T05:53:06.823Z,83.10
2017-10-21T05:55:34.276Z,82.90
2017-10-21T05:58:01.758Z,82.90
2017-10-21T06:00:29.230Z,82.90
2017-10-21T06:02:57.549Z,83.30
2017-10-21T06:05:25.028Z,83.20
2017-10-21T06:07:52.501Z,83.20
2017-10-21T06:10:19.980Z,83.40
2017-10-21T06:12:48.229Z,83.10
2017-10-21T06:15:15.692Z,83.20
2017-10-21T06:17:43.162Z,83.20
2017-10-21T06:20:11.402Z,83.30
2017-10-21T06:22:38.886Z,83.30
2017-10-21T06:25:06.344Z,83.40
2017-10-21T06:27:33.813Z,83.70
2017-10-21T06:30:02.046Z,83.60
2017-10-21T06:32:29.548Z,83.50
2017-10-21T06:34:57.781Z,83.90
2017-10-21T06:37:25.254Z,83.90
2017-10-21T06:39:52.774Z,83.90
2017-10-21T06:42:20.247Z,83.80
2017-10-21T06:44:47.727Z,83.80
2017-10-21T06:47:16.694Z,84.00
2017-10-21T06:49:44.180Z,84.00
2017-10-21T06:52:13.151Z,84.30
2017-10-21T06:54:40.638Z,84.30
2017-10-21T06:57:08.957Z,84.10
2017-10-21T06:59:36.455Z,84.00
2017-10-21T07:02:03.942Z,84.30
2017-10-21T07:04:32.174Z,84.20
2017-10-21T07:06:59.748Z,84.20
2017-10-21T07:09:28.773Z,84.20
2017-10-21T07:11:56.281Z,84.20
2017-10-21T07:14:23.771Z,84.40
2017-10-21T07:16:51.416Z,84.50
2017-10-21T07:19:18.894Z,84.50
2017-10-21T07:21:47.139Z,84.50
2017-10-21T07:24:14.600Z,84.50
2017-10-21T07:26:42.069Z,84.60
2017-10-21T07:29:09.536Z,84.60
2017-10-21T07:31:37.793Z,84.90
2017-10-21T07:34:05.249Z,84.90
2017-10-21T07:36:34.217Z,85.40
2017-10-21T07:39:01.718Z,85.40
2017-10-21T07:41:29.953Z,85.90
2017-10-21T07:43:57.445Z,85.80
2017-10-21T07:46:25.681Z,86.80
2017-10-21T07:48:53.163Z,86.80
2017-10-21T07:51:20.673Z,87.80
2017-10-21T07:53:48.181Z,88.50
2017-10-21T07:56:15.645Z,89.50
2017-10-21T07:58:43.125Z,90.20
2017-10-21T08:01:10.617Z,90.60
2017-10-21T08:03:38.066Z,90.80
2017-10-21T08:06:05.690Z,91.30
2017-10-21T08:08:33.941Z,91.80
2017-10-21T08:11:01.425Z,91.80
2017-10-21T08:13:29.658Z,92.10
2017-10-21T08:15:57.146Z,92.00
2017-10-21T08:18:26.105Z,92.00
2017-10-21T08:20:53.587Z,92.00
2017-10-21T08:23:21.975Z,91.80
2017-10-21T08:25:49.432Z,91.80
2017-10-21T08:28:17.675Z,91.90
2017-10-21T08:30:45.235Z,91.90
2017-10-21T08:33:12.701Z,91.90
2017-10-21T08:35:40.188Z,91.90
2017-10-21T08:38:08.463Z,91.90
2017-10-21T08:40:36.705Z,91.90
2017-10-21T08:43:04.254Z,91.90
2017-10-21T08:45:31.709Z,92.10
2017-10-21T08:47:59.756Z,92.10
2017-10-21T08:50:27.260Z,92.40
2017-10-21T08:52:56.233Z,92.50
2017-10-21T08:55:23.725Z,92.50
2017-10-21T08:57:52.061Z,92.70
2017-10-21T09:00:19.702Z,92.70
2017-10-21T09:02:47.184Z,92.80
2017-10-21T09:05:14.670Z,92.80
2017-10-21T09:07:42.280Z,92.80
2017-10-21T09:10:09.778Z,92.80
2017-10-21T09:12:37.286Z,92.60
2017-10-21T09:15:04.749Z,92.60
2017-10-21T09:17:32.209Z,92.60
2017-10-21T09:19:59.710Z,92.50
2017-10-21T09:22:27.355Z,92.40
2017-10-21T09:24:54.831Z,92.60
2017-10-21T09:27:22.289Z,92.50
2017-10-21T09:29:49.746Z,92.70
2017-10-21T09:32:17.237Z,92.70
2017-10-21T09:34:44.719Z,92.70
2017-10-21T09:37:12.182Z,92.70
2017-10-21T09:39:39.661Z,92.70
2017-10-21T09:42:07.133Z,92.70
2017-10-21T09:44:34.612Z,92.80
2017-10-21T09:47:02.845Z,92.80
2017-10-21T09:49:30.329Z,92.80
2017-10-21T09:51:58.684Z,92.80
2017-10-21T09:54:26.210Z,92.80
2017-10-21T09:56:53.692Z,92.90
2017-10-21T09:59:21.186Z,92.80
2017-10-21T10:01:48.664Z,92.90
2017-10-21T10:04:16.131Z,92.80
2017-10-21T10:06:43.600Z,92.80
2017-10-21T10:09:11.097Z,92.70
2017-10-21T10:11:39.341Z,92.30
2017-10-21T10:14:06.958Z,92.40
2017-10-21T10:16:34.465Z,92.30
2017-10-21T10:19:01.967Z,92.00
2017-10-21T10:21:30.194Z,91.70
2017-10-21T10:23:57.674Z,91.70
2017-10-21T10:26:25.155Z,91.70
2017-10-21T10:28:53.387Z,91.40
2017-10-21T10:31:20.854Z,91.40
2017-10-21T10:33:48.324Z,91.50
2017-10-21T10:36:16.565Z,91.70
2017-10-21T10:38:44.041Z,91.40
2017-10-21T10:41:11.512Z,91.50
2017-10-21T10:43:38.990Z,91.50
2017-10-21T10:46:07.237Z,91.30
2017-10-21T10:48:34.764Z,91.20
2017-10-21T10:51:02.221Z,91.30
2017-10-21T10:53:29.708Z,91.10
2017-10-21T10:55:57.228Z,91.00
2017-10-21T10:58:24.709Z,91.00
2017-10-21T11:00:52.177Z,91.00
2017-10-21T11:03:20.425Z,91.10
2017-10-21T11:05:47.907Z,91.10
2017-10-21T11:08:15.380Z,90.90
2017-10-21T11:10:42.866Z,91.00
2017-10-21T11:13:10.449Z,91.00
2017-10-21T11:15:37.976Z,91.00
2017-10-21T11:18:06.258Z,90.60
2017-10-21T11:20:33.745Z,90.60
2017-10-21T11:23:01.201Z,90.60
2017-10-21T11:25:28.654Z,90.50
2017-10-21T11:27:56.330Z,90.40
2017-10-21T11:30:23.802Z,90.40
2017-10-21T11:32:52.804Z,90.40
2017-10-21T11:35:20.767Z,90.40
2017-10-21T11:37:49.762Z,90.10
2017-10-21T11:40:17.226Z,90.10
2017-10-21T11:42:45.475Z,90.50
2017-10-21T11:45:12.949Z,90.20
2017-10-21T11:47:40.428Z,90.10
2017-10-21T11:50:08.653Z,89.70
2017-10-21T11:52:36.137Z,89.60
2017-10-21T11:55:04.483Z,90.20
2017-10-21T11:57:32.197Z,90.20
2017-10-21T12:00:02.221Z,90.00
2017-10-21T12:02:30.646Z,89.70
2017-10-21T12:04:58.137Z,89.60
2017-10-21T12:07:25.680Z,89.80
2017-10-21T12:09:53.149Z,89.60
2017-10-21T12:12:21.394Z,88.00
2017-10-21T12:14:48.893Z,88.10
2017-10-21T12:17:17.119Z,84.70
2017-10-21T12:19:44.855Z,84.70
2017-10-21T12:22:13.225Z,80.40
2017-10-21T12:24:41.452Z,79.80
2017-10-21T12:27:08.953Z,79.70
2017-10-21T12:29:37.042Z,80.20
2017-10-21T12:32:05.497Z,80.20
2017-10-21T12:34:34.302Z,78.90
2017-10-21T12:37:03.846Z,78.90
2017-10-21T12:39:31.650Z,78.80
2017-10-21T12:41:59.207Z,78.30
2017-10-21T12:44:27.450Z,77.30
2017-10-21T12:46:55.535Z,76.40
2017-10-21T12:49:23.218Z,76.10
2017-10-21T12:52:11.655Z,76.20
2017-10-21T12:54:40.753Z,75.40
2017-10-21T12:57:08.234Z,75.40
2017-10-21T12:59:36.610Z,74.50
2017-10-21T13:02:05.007Z,74.50
2017-10-21T13:04:32.818Z,75.50
2017-10-21T13:07:00.284Z,73.00
2017-10-21T13:09:27.817Z,73.70
2017-10-21T13:11:55.837Z,72.50
2017-10-21T13:14:24.587Z,73.50
2017-10-21T13:16:52.177Z,73.40
2017-10-21T13:19:20.960Z,72.10
2017-10-21T13:21:48.529Z,72.10
2017-10-21T13:24:16.793Z,72.40
2017-10-21T13:26:44.822Z,73.00
2017-10-21T13:29:12.299Z,72.90
2017-10-21T13:31:39.785Z,72.60
2017-10-21T13:34:08.308Z,73.30
2017-10-21T13:36:35.837Z,73.20
2017-10-21T13:39:03.919Z,72.90
2017-10-21T13:41:31.438Z,71.20
2017-10-21T13:43:58.925Z,70.80
2017-10-21T13:46:27.154Z,70.20
2017-10-21T13:48:54.817Z,70.20
2017-10-21T13:51:22.809Z,69.70
2017-10-21T13:53:50.302Z,70.90
2017-10-21T13:56:17.783Z,70.30
2017-10-21T13:58:45.468Z,71.20
2017-10-21T14:01:12.940Z,71.30
2017-10-21T14:03:40.426Z,70.10
2017-10-21T14:06:19.191Z,69.70
2017-10-21T14:08:46.677Z,69.70
2017-10-21T14:11:21.616Z,69.30
2017-10-21T14:13:49.357Z,69.00
2017-10-21T14:16:16.842Z,68.00
2017-10-21T14:18:45.078Z,67.70
2017-10-21T14:21:12.577Z,67.60
2017-10-21T14:23:40.806Z,68.20
2017-10-21T14:26:08.334Z,68.10
2017-10-21T14:28:35.795Z,67.20
2017-10-21T14:31:03.284Z,67.50
2017-10-21T14:33:30.753Z,66.90
2017-10-21T14:35:58.234Z,66.90
2017-10-21T14:38:26.498Z,67.40
2017-10-21T14:40:53.959Z,67.30
2017-10-21T14:43:22.218Z,67.90
2017-10-21T14:45:49.684Z,67.50
2017-10-21T14:48:17.353Z,67.80
2017-10-21T14:50:44.821Z,68.60
2017-10-21T14:53:13.066Z,67.90
2017-10-21T14:55:40.700Z,67.90
2017-10-21T14:58:08.171Z,67.90
2017-10-21T15:00:35.862Z,69.30
2017-10-21T15:03:04.210Z,70.10
2017-10-21T15:05:31.689Z,69.50
2017-10-21T15:07:59.171Z,69.80
2017-10-21T15:10:35.579Z,67.80
2017-10-21T15:13:04.229Z,67.80
2017-10-21T15:15:31.721Z,67.40
2017-10-21T15:17:59.325Z,67.50
2017-10-21T15:20:27.618Z,67.90
2017-10-21T15:22:55.110Z,67.90
2017-10-21T15:25:22.637Z,67.10
2017-10-21T15:27:50.118Z,67.70
2017-10-21T15:30:17.581Z,68.00
2017-10-21T15:32:45.069Z,68.40
2017-10-21T15:35:12.636Z,68.90
2017-10-21T15:37:40.910Z,71.20
2017-10-21T15:40:08.401Z,71.30
2017-10-21T15:42:36.635Z,74.10
2017-10-21T15:45:04.101Z,74.00
2017-10-21T15:47:31.566Z,73.60
2017-10-21T15:49:59.810Z,73.20
2017-10-21T15:52:27.284Z,73.20
2017-10-21T15:54:54.754Z,72.20
2017-10-21T15:57:23.701Z,72.00
2017-10-21T15:59:51.201Z,71.90
2017-10-21T16:02:18.969Z,71.10
2017-10-21T16:04:47.346Z,71.80
2017-10-21T16:07:15.610Z,72.00
2017-10-21T16:09:43.658Z,72.00
2017-10-21T16:12:11.208Z,72.30
2017-10-21T16:14:38.968Z,72.80
2017-10-21T16:17:07.077Z,73.10
2017-10-21T16:19:34.622Z,73.00
2017-10-21T16:22:02.879Z,73.80
2017-10-21T16:24:30.401Z,73.80
2017-10-21T16:26:59.279Z,74.20
2017-10-21T16:29:27.269Z,74.20
2017-10-21T16:31:54.751Z,74.30
2017-10-21T16:34:26.261Z,74.30
2017-10-21T16:36:54.595Z,74.30
2017-10-21T16:39:22.629Z,74.30
2017-10-21T16:41:50.275Z,74.50
2017-10-21T16:44:18.529Z,74.90
2017-10-21T16:46:47.845Z,74.90
2017-10-21T16:49:16.077Z,75.00
2017-10-21T16:51:43.562Z,74.90
2017-10-21T16:54:11.813Z,74.80
2017-10-21T16:56:39.283Z,75.00
2017-10-21T16:59:07.263Z,74.80
2017-10-21T17:01:35.668Z,74.80
2017-10-21T17:04:03.247Z,74.60
2017-10-21T17:06:31.030Z,74.90
2017-10-21T17:09:00.470Z,75.00
2017-10-21T17:11:28.946Z,75.20
2017-10-21T17:13:56.703Z,75.20
2017-10-21T17:16:24.435Z,75.00
2017-10-21T17:18:51.946Z,75.70
2017-10-21T17:21:19.436Z,75.30
2017-10-21T17:23:46.930Z,74.50
2017-10-21T17:26:15.238Z,74.60
2017-10-21T17:28:43.619Z,74.80
2017-10-21T17:31:11.864Z,75.30
2017-10-21T17:33:39.715Z,75.10
2017-10-21T17:36:07.192Z,75.30
2017-10-21T17:38:34.761Z,76.00
2017-10-21T17:41:03.047Z,76.80
2017-10-21T17:43:31.394Z,76.90
2017-10-21T17:45:58.867Z,76.90
2017-10-21T17:48:27.222Z,78.20
2017-10-21T17:50:54.822Z,77.40
2017-10-21T17:53:23.801Z,77.10
2017-10-21T17:55:52.060Z,76.60
2017-10-21T17:58:19.540Z,76.50
2017-10-21T18:00:47.807Z,76.80
2017-10-21T18:03:16.053Z,78.00
2017-10-21T18:05:43.522Z,77.20
2017-10-21T18:08:11.776Z,77.30
2017-10-21T18:10:39.337Z,77.30
2017-10-21T18:13:06.823Z,77.30
2017-10-21T18:15:34.345Z,77.20
2017-10-21T18:18:01.844Z,77.30
2017-10-21T18:20:30.063Z,76.40
2017-10-21T18:22:57.694Z,76.40
2017-10-21T18:25:25.944Z,76.30
2017-10-21T18:27:53.420Z,76.30
2017-10-21T18:30:21.685Z,76.50
2017-10-21T18:32:49.141Z,76.50
2017-10-21T18:35:17.402Z,76.50
2017-10-21T18:37:44.886Z,76.50
2017-10-21T18:40:13.127Z,77.00
2017-10-21T18:42:40.610Z,77.00
2017-10-21T18:45:08.843Z,77.60
2017-10-21T18:47:36.324Z,77.50
2017-10-21T18:50:03.785Z,77.40
2017-10-21T18:52:32.017Z,77.10
2017-10-21T18:54:59.504Z,77.00
2017-10-21T18:57:26.977Z,77.10
2017-10-21T18:59:54.477Z,77.20
2017-10-21T19:02:21.991Z,77.10
2017-10-21T19:04:50.329Z,76.70
2017-10-21T19:07:17.850Z,76.80
2017-10-21T19:09:46.108Z,76.90
2017-10-21T19:12:13.672Z,76.70
2017-10-21T19:14:41.939Z,76.50
2017-10-21T19:17:09.472Z,76.50
2017-10-21T19:19:36.967Z,76.40
2017-10-21T19:22:05.213Z,76.60
2017-10-21T19:24:33.306Z,76.60
2017-10-21T19:27:02.619Z,76.30
2017-10-21T19:29:30.907Z,76.90
2017-10-21T19:31:58.422Z,77.70
2017-10-21T19:34:25.919Z,78.50
2017-10-21T19:36:53.413Z,79.00
2017-10-21T19:39:20.940Z,79.40
2017-10-21T19:41:49.402Z,79.90
2017-10-21T19:44:17.938Z,80.20
2017-10-21T19:46:45.414Z,80.20
2017-10-21T19:49:14.438Z,80.30
2017-10-21T19:51:42.456Z,80.80
2017-10-21T19:54:09.982Z,81.60
2017-10-21T19:56:37.581Z,81.10
2017-10-21T19:59:05.348Z,81.40
2017-10-21T20:01:32.997Z,81.80
2017-10-21T20:04:00.510Z,82.00
2017-10-21T20:06:28.753Z,82.10
2017-10-21T20:08:56.236Z,82.00
2017-10-21T20:11:24.543Z,82.20
2017-10-21T20:13:52.946Z,82.30
2017-10-21T20:16:20.533Z,82.40
2017-10-21T20:18:48.189Z,82.40
2017-10-21T20:21:15.662Z,82.80
2017-10-21T20:23:43.938Z,82.90
2017-10-21T20:26:11.410Z,82.90
2017-10-21T20:28:39.642Z,82.90
2017-10-21T20:31:07.133Z,82.80
2017-10-21T20:33:35.608Z,82.80
2017-10-21T20:36:03.878Z,82.40
2017-10-21T20:38:32.770Z,82.40
2017-10-21T20:41:01.341Z,82.00
2017-10-21T20:43:29.002Z,82.00
2017-10-21T20:45:56.563Z,81.70
2017-10-21T20:48:24.707Z,81.40
2017-10-21T20:50:52.205Z,81.50
2017-10-21T20:53:20.754Z,81.70
2017-10-21T20:55:48.253Z,81.60
2017-10-21T20:58:16.496Z,81.50
2017-10-21T21:00:44.493Z,81.40
2017-10-21T21:03:11.974Z,81.50
2017-10-21T21:05:39.505Z,81.70
2017-10-21T21:08:07.786Z,82.00
2017-10-21T21:10:36.014Z,81.90
2017-10-21T21:13:03.497Z,81.80
2017-10-21T21:15:31.490Z,81.70
2017-10-21T21:17:59.747Z,81.50
2017-10-21T21:20:27.223Z,81.50
2017-10-21T21:22:54.901Z,81.20
2017-10-21T21:25:22.406Z,80.90
2017-10-21T21:27:49.893Z,80.80
2017-10-21T21:30:18.138Z,80.10
2017-10-21T21:32:45.617Z,80.10
2017-10-21T21:35:13.886Z,79.40
2017-10-21T21:37:41.352Z,79.20
2017-10-21T21:40:09.590Z,79.40
2017-10-21T21:42:37.065Z,79.30
2017-10-21T21:45:10.620Z,79.20
2017-10-21T21:47:38.084Z,79.20
2017-10-21T21:50:05.607Z,79.00
2017-10-21T21:52:33.847Z,78.60
2017-10-21T21:55:01.326Z,78.50
2017-10-21T21:57:29.071Z,78.60
2017-10-21T21:59:56.553Z,78.70
2017-10-21T22:02:25.019Z,78.40
2017-10-21T22:04:52.513Z,78.40
2017-10-21T22:07:20.813Z,78.10
2017-10-21T22:09:48.285Z,78.10
2017-10-21T22:12:15.978Z,77.90
2017-10-21T22:14:44.947Z,77.80
2017-10-21T22:17:12.557Z,77.80
2017-10-21T22:19:40.805Z,77.70
2017-10-21T22:22:08.278Z,77.60
2017-10-21T22:24:36.702Z,77.70
2017-10-21T22:27:05.175Z,77.70
2017-10-21T22:29:33.130Z,77.70
2017-10-21T22:32:00.603Z,77.70
2017-10-21T22:34:28.111Z,77.50
2017-10-21T22:36:56.478Z,77.50
2017-10-21T22:39:25.507Z,77.30
2017-10-21T22:41:53.773Z,77.30
2017-10-21T22:44:22.039Z,77.10
2017-10-21T22:46:50.304Z,77.10
2017-10-21T22:49:17.821Z,77.10
2017-10-21T22:51:45.308Z,77.20
2017-10-21T22:54:12.874Z,77.00
2017-10-21T22:56:40.404Z,76.90
2017-10-21T22:59:07.870Z,76.80
2017-10-21T23:01:35.357Z,76.70
2017-10-21T23:04:02.841Z,76.70
2017-10-21T23:06:30.362Z,76.70
2017-10-21T23:08:57.837Z,76.60
2017-10-21T23:11:26.085Z,76.50
2017-10-21T23:13:53.573Z,76.50
2017-10-21T23:16:21.802Z,76.30
2017-10-21T23:18:49.274Z,76.20
2017-10-21T23:21:16.775Z,76.10
2017-10-21T23:23:44.254Z,75.90
2017-10-21T23:26:11.779Z,76.20
2017-10-21T23:28:40.014Z,76.10
2017-10-21T23:31:07.491Z,76.00
2017-10-21T23:33:35.110Z,75.80
2017-10-21T23:36:02.585Z,76.30
2017-10-21T23:38:30.226Z,76.40
2017-10-21T23:40:57.862Z,75.80
2017-10-21T23:43:25.354Z,75.60
2017-10-21T23:45:52.938Z,75.40
2017-10-21T23:48:20.425Z,75.40
2017-10-21T23:50:47.910Z,75.20
2017-10-21T23:53:15.404Z,75.80
2017-10-21T23:55:43.666Z,75.90
2017-10-21T23:58:11.162Z,75.90
